Time;durP1;ratioP1;P1;durP2;ratioP2;P2;SDS_P1;SDS_P2;PMS_P1;PMS_P2;Temp;Humidity;BMP_temperature;BMP_pressure;BME280_temperature;BME280_humidity;BME280_pressure;Samples;Min_cycle;Max_cycle;Signal;HPM_P1;HPM_P2
2022/06/04 00:00:05;;;;;;;8.80;8.00;;;;;;;20.33;69.55;97949.25;8348311;28;20234;-76
2022/06/04 00:04:08;;;;;;;8.60;7.70;;;;;;;20.35;69.70;97954.41;8348241;28;20246;-76
2022/06/04 00:08:12;;;;;;;11.57;7.50;;;;;;;20.32;69.30;97955.50;8348093;28;20231;-76
2022/06/04 00:16:36;;;;;;;8.13;7.43;;;;;;;20.34;69.18;97965.91;8347747;28;20224;-76
2022/06/04 00:20:39;;;;;;;9.43;8.00;;;;;;;20.22;69.15;97962.47;8347886;28;20228;-76
2022/06/04 00:24:43;;;;;;;9.73;7.90;;;;;;;20.27;69.06;97957.69;8347595;28;20253;-76
2022/06/04 00:28:47;;;;;;;11.60;8.27;;;;;;;20.24;69.29;97958.78;8347530;28;20256;-76
2022/06/04 00:32:50;;;;;;;10.23;9.23;;;;;;;20.36;69.21;97949.00;8347734;28;20227;-76
2022/06/04 00:36:52;;;;;;;16.73;14.17;;;;;;;20.24;70.03;97958.78;8347459;28;20233;-76
2022/06/04 00:41:00;;;;;;;19.50;15.83;;;;;;;20.19;70.08;97952.22;8347242;28;20265;-76
2022/06/04 00:45:49;;;;;;;20.23;15.70;;;;;;;20.12;70.84;97962.41;8347422;28;20407;-76
2022/06/04 00:49:53;;;;;;;36.17;16.40;;;;;;;20.14;70.58;97965.75;8314530;28;20325;-76
2022/06/04 00:53:58;;;;;;;27.97;16.17;;;;;;;20.15;70.54;97961.34;8314597;28;20224;-76
2022/06/04 00:58:11;;;;;;;23.13;16.10;;;;;;;20.16;70.49;97952.47;8314478;28;20431;-76
2022/06/04 01:02:23;;;;;;;30.33;16.57;;;;;;;20.11;70.57;97947.63;8314499;28;20234;-75
2022/06/04 01:06:40;;;;;;;33.87;16.57;;;;;;;20.07;71.03;97973.31;8346543;28;20244;-75
2022/06/04 01:10:50;;;;;;;35.10;15.43;;;;;;;20.12;70.77;97975.56;8347015;28;20230;-76
2022/06/04 01:15:07;;;;;;;22.93;14.67;;;;;;;20.12;70.81;97975.56;8346988;28;20413;-76
2022/06/04 01:19:27;;;;;;;16.90;15.10;;;;;;;20.14;70.52;97975.44;8346899;28;20231;-76
2022/06/04 01:24:17;;;;;;;20.23;14.63;;;;;;;20.11;70.18;97977.38;8339415;28;20523;-76
2022/06/04 01:28:21;;;;;;;19.90;14.33;;;;;;;20.08;70.36;97977.59;8346739;28;20230;-75
2022/06/04 01:32:28;;;;;;;15.23;13.73;;;;;;;20.02;70.40;97978.13;8338462;28;20221;-75
2022/06/04 01:36:34;;;;;;;16.27;14.37;;;;;;;20.06;70.23;97981.34;8346662;28;20231;-76
2022/06/04 01:45:03;;;;;;;21.60;13.80;;;;;;;19.92;70.64;97980.69;8346319;28;20432;-76
2022/06/04 01:49:12;;;;;;;18.13;13.60;;;;;;;19.86;70.51;97983.81;8349042;28;20537;-76
2022/06/04 01:53:17;;;;;;;14.33;12.60;;;;;;;19.86;69.92;97988.25;8352372;28;20233;-76
2022/06/04 01:57:22;;;;;;;13.10;12.00;;;;;;;19.81;69.88;97975.47;8352229;28;20228;-76
2022/06/04 02:01:29;;;;;;;14.30;12.73;;;;;;;19.75;69.83;97967.28;8351753;28;20530;-75
2022/06/04 02:05:36;;;;;;;15.93;14.43;;;;;;;19.71;70.16;97964.03;8351930;28;20234;-76
2022/06/04 02:09:41;;;;;;;22.40;15.30;;;;;;;19.79;70.22;97958.19;8351827;28;20228;-76
2022/06/04 02:13:46;;;;;;;16.73;15.13;;;;;;;19.81;70.14;97941.31;8351639;28;20229;-76
2022/06/04 02:17:54;;;;;;;17.37;15.50;;;;;;;19.81;70.32;97938.69;8351511;28;20243;-76
2022/06/04 02:21:56;;;;;;;31.80;17.47;;;;;;;19.72;70.59;97931.56;8351482;28;20234;-76
2022/06/04 02:25:59;;;;;;;16.73;15.20;;;;;;;19.78;70.45;97925.81;8351207;28;20236;-76
2022/06/04 02:30:03;;;;;;;19.20;16.00;;;;;;;19.71;70.59;97925.44;8351173;28;20232;-76
2022/06/04 02:34:13;;;;;;;35.17;15.43;;;;;;;19.64;70.72;97928.72;8351043;28;20223;-76
2022/06/04 02:38:24;;;;;;;98.30;17.67;;;;;;;19.64;70.75;97929.53;8350904;28;20227;-76
2022/06/04 02:42:32;;;;;;;39.50;15.10;;;;;;;19.61;71.25;97939.47;8317516;28;20234;-76
2022/06/04 02:46:38;;;;;;;15.20;12.90;;;;;;;19.62;70.83;97943.75;8317904;28;20231;-76
2022/06/04 02:50:44;;;;;;;20.87;12.70;;;;;;;19.63;70.85;97950.66;8317929;28;20558;-76
2022/06/04 02:54:50;;;;;;;35.23;13.00;;;;;;;19.56;70.59;97955.59;8317741;28;20254;-75
2022/06/04 02:58:55;;;;;;;13.23;12.03;;;;;;;19.61;70.41;97950.81;8317570;28;20228;-76
2022/06/04 03:02:58;;;;;;;18.33;12.60;;;;;;;19.60;70.68;97953.56;8317518;28;20235;-76
2022/06/04 03:07:07;;;;;;;15.97;13.40;;;;;;;19.61;70.60;97960.47;8317130;28;20311;-75
2022/06/04 03:11:10;;;;;;;13.73;12.33;;;;;;;19.55;70.75;97940.78;8317099;28;20233;-76
2022/06/04 03:15:14;;;;;;;14.83;13.33;;;;;;;19.54;71.12;97941.75;8316985;28;20234;-76
2022/06/04 03:19:17;;;;;;;31.80;15.80;;;;;;;19.54;71.17;97953.09;8316861;28;20246;-76
2022/06/04 03:23:21;;;;;;;21.23;14.47;;;;;;;19.59;70.95;97952.75;8316737;28;20223;-76
2022/06/04 03:27:24;;;;;;;25.97;13.07;;;;;;;19.53;71.32;97947.97;8349050;28;20254;-74
2022/06/04 03:31:27;;;;;;;47.63;16.77;;;;;;;19.54;71.79;97965.41;8349209;28;20226;-76
2022/06/04 03:35:30;;;;;;;14.10;12.03;;;;;;;19.54;71.43;97963.59;8349161;28;20232;-76
2022/06/04 03:39:34;;;;;;;15.63;13.90;;;;;;;19.60;71.06;97969.31;8349093;28;20229;-75
2022/06/04 03:43:37;;;;;;;17.30;13.77;;;;;;;19.56;71.85;97965.28;8348779;28;20239;-76
2022/06/04 03:47:40;;;;;;;17.30;13.80;;;;;;;19.59;71.14;97955.38;8348632;28;20290;-75
2022/06/04 03:51:43;;;;;;;24.67;15.13;;;;;;;19.58;71.71;97958.13;8348609;28;20226;-76
2022/06/04 03:55:47;;;;;;;19.43;14.97;;;;;;;19.63;71.25;97962.03;8348535;28;20225;-76
2022/06/04 03:59:51;;;;;;;19.47;16.20;;;;;;;19.53;72.13;97964.56;8348530;28;20233;-76
2022/06/04 04:03:54;;;;;;;18.13;16.27;;;;;;;19.55;72.31;97959.19;8348239;28;20230;-76
2022/06/04 04:07:58;;;;;;;27.77;17.53;;;;;;;19.48;72.65;97968.53;8348144;28;20230;-76
2022/06/04 04:12:02;;;;;;;19.37;17.57;;;;;;;19.59;71.64;97950.13;8347711;28;20543;-76
2022/06/04 04:16:06;;;;;;;19.60;17.70;;;;;;;19.55;72.14;97943.41;8347967;28;20544;-76
2022/06/04 04:20:11;;;;;;;27.77;17.93;;;;;;;19.56;72.33;97945.09;8347877;28;20242;-76
2022/06/04 04:24:14;;;;;;;19.83;17.20;;;;;;;19.56;72.14;97952.16;8347763;28;20240;-76
2022/06/04 04:28:18;;;;;;;20.40;17.57;;;;;;;19.60;71.80;97954.38;8347685;28;20245;-76
2022/06/04 04:32:21;;;;;;;18.83;16.93;;;;;;;19.68;72.06;97953.75;8347652;28;20222;-76
2022/06/04 04:36:27;;;;;;;19.57;17.77;;;;;;;19.64;72.42;97955.81;8314479;28;20227;-75
2022/06/04 04:40:31;;;;;;;22.87;17.83;;;;;;;19.70;72.31;97949.22;8314739;28;20265;-76
2022/06/04 04:44:36;;;;;;;20.10;18.00;;;;;;;19.68;71.50;97956.38;8314810;28;20234;-76
2022/06/04 04:48:39;;;;;;;21.47;19.27;;;;;;;19.71;71.93;97962.22;8314465;28;20239;-76
2022/06/04 04:52:42;;;;;;;22.13;19.93;;;;;;;19.78;72.08;97974.88;8314610;28;20239;-76
2022/06/04 04:56:45;;;;;;;21.80;19.70;;;;;;;19.64;72.65;97970.75;8314590;28;20530;-76
2022/06/04 05:00:49;;;;;;;42.17;20.70;;;;;;;19.60;72.71;97977.22;8314494;28;20238;-76
2022/06/04 05:04:52;;;;;;;46.60;22.50;;;;;;;19.50;73.97;97985.81;8314316;28;20230;-76
2022/06/04 05:08:56;;;;;;;33.50;23.03;;;;;;;19.32;75.25;97989.91;8314292;28;20535;-76
2022/06/04 05:12:59;;;;;;;44.43;24.40;;;;;;;19.32;74.71;97989.91;8314261;28;20239;-75
2022/06/04 05:17:04;;;;;;;24.90;22.03;;;;;;;19.63;73.59;97995.31;8314288;28;20232;-75
2022/06/04 05:21:11;;;;;;;26.07;23.43;;;;;;;19.69;72.69;98003.56;8314292;28;20231;-76
2022/06/04 05:25:14;;;;;;;24.07;21.23;;;;;;;19.75;73.25;98006.69;8318661;28;20234;-76
2022/06/04 05:29:16;;;;;;;26.87;23.27;;;;;;;19.81;72.42;98019.31;8320279;28;20240;-76
2022/06/04 05:33:21;;;;;;;29.57;23.93;;;;;;;19.81;72.47;98011.44;8320236;28;20422;-75
2022/06/04 05:37:23;;;;;;;28.40;21.03;;;;;;;19.84;72.56;98016.44;8352439;28;20228;-74
2022/06/04 05:41:26;;;;;;;23.87;20.20;;;;;;;19.88;72.83;98031.00;8352707;28;20234;-75
2022/06/04 05:45:29;;;;;;;23.13;19.30;;;;;;;19.90;72.57;98036.97;8352594;28;20230;-75
2022/06/04 05:49:34;;;;;;;19.93;18.00;;;;;;;19.97;72.33;98045.16;8352481;28;20231;-76
2022/06/04 05:53:36;;;;;;;22.30;17.90;;;;;;;19.96;72.09;98051.41;8352280;28;20430;-75
2022/06/04 05:57:39;;;;;;;18.37;16.43;;;;;;;19.98;72.36;98045.06;8352171;28;20228;-76
2022/06/04 06:01:44;;;;;;;25.07;17.43;;;;;;;20.05;72.07;98046.22;8352056;28;20273;-76
2022/06/04 06:05:48;;;;;;;18.23;16.50;;;;;;;20.03;71.86;98050.78;8351875;28;20235;-76
2022/06/04 06:09:51;;;;;;;18.73;16.93;;;;;;;20.01;71.97;98051.84;8351856;28;20240;-76
2022/06/04 06:13:54;;;;;;;18.47;16.70;;;;;;;20.06;71.81;98050.50;8351821;28;20228;-76
2022/06/04 06:17:57;;;;;;;17.27;15.67;;;;;;;20.15;71.14;98046.31;8351526;28;20264;-76
2022/06/04 06:22:01;;;;;;;16.27;14.67;;;;;;;20.13;71.74;98056.09;8351455;28;20433;-76
2022/06/04 06:26:05;;;;;;;14.60;13.33;;;;;;;20.25;71.31;98035.84;8351187;28;20238;-76
2022/06/04 06:30:08;;;;;;;18.07;13.87;;;;;;;20.26;71.27;98041.00;8351179;28;20226;-76
2022/06/04 06:34:11;;;;;;;16.03;14.43;;;;;;;20.34;70.99;98055.31;8351186;28;20233;-76
2022/06/04 06:38:15;;;;;;;16.83;15.23;;;;;;;20.30;70.32;98057.34;8350901;28;20234;-75
2022/06/04 06:42:18;;;;;;;17.77;15.97;;;;;;;20.32;70.69;98055.44;8350692;28;20408;-76
2022/06/04 06:46:23;;;;;;;19.37;17.27;;;;;;;20.34;70.41;98050.88;8350657;28;20242;-76
2022/06/04 06:50:25;;;;;;;20.17;18.00;;;;;;;20.42;70.56;98064.22;8317446;28;20260;-76
2022/06/04 06:54:33;;;;;;;21.53;19.30;;;;;;;20.34;70.61;98071.91;8317778;28;20539;-76
2022/06/04 06:58:36;;;;;;;20.90;18.67;;;;;;;20.34;70.56;98092.13;8317525;28;20231;-75
2022/06/04 07:02:39;;;;;;;20.17;18.07;;;;;;;20.38;70.05;98078.56;8317395;28;20231;-76
2022/06/04 07:06:44;;;;;;;20.67;18.57;;;;;;;20.49;70.45;98056.66;8317177;28;20758;-76
2022/06/04 07:10:48;;;;;;;21.53;19.03;;;;;;;20.46;69.87;98049.00;8317197;28;20425;-76
2022/06/04 07:14:51;;;;;;;22.93;19.67;;;;;;;20.31;71.22;98056.38;8317023;28;20240;-76
2022/06/04 07:18:54;;;;;;;25.00;21.90;;;;;;;20.11;71.35;98079.88;8316633;28;20228;-77
2022/06/04 07:22:56;;;;;;;22.93;20.63;;;;;;;20.01;71.47;98086.88;8316680;28;20231;-76
2022/06/04 07:27:01;;;;;;;20.77;18.73;;;;;;;19.95;71.81;98094.41;8316487;28;20232;-76
2022/06/04 07:31:05;;;;;;;21.87;19.77;;;;;;;19.63;73.96;98095.16;8316667;28;20439;-77
2022/06/04 07:35:09;;;;;;;22.83;20.63;;;;;;;19.97;71.23;98095.09;8316536;28;20235;-77
2022/06/04 07:39:14;;;;;;;19.43;17.43;;;;;;;20.56;70.81;98099.91;8316230;28;20231;-77
2022/06/04 07:43:18;;;;;;;21.80;19.67;;;;;;;20.70;68.76;98102.25;8315901;28;20235;-77
2022/06/04 07:47:21;;;;;;;19.60;17.70;;;;;;;20.77;68.76;98109.59;8315248;28;20231;-77
2022/06/04 07:51:25;;;;;;;19.23;17.23;;;;;;;20.79;68.87;98113.81;8348288;28;20401;-76
2022/06/04 07:55:28;;;;;;;20.27;18.27;;;;;;;20.69;69.00;98126.91;8348523;28;20411;-77
2022/06/04 07:59:33;;;;;;;20.40;18.30;;;;;;;20.77;69.13;98131.53;8348502;28;20238;-77
2022/06/04 08:03:37;;;;;;;21.07;19.07;;;;;;;20.75;69.01;98133.41;8348339;28;20231;-77
2022/06/04 08:07:41;;;;;;;21.50;18.97;;;;;;;20.79;68.75;98126.97;8348052;28;20246;-76
2022/06/04 08:11:44;;;;;;;21.23;18.93;;;;;;;20.79;68.70;98123.47;8347971;28;20306;-76
2022/06/04 08:15:48;;;;;;;21.93;19.63;;;;;;;20.73;68.83;98119.56;8348027;28;20242;-76
2022/06/04 08:19:51;;;;;;;23.80;21.57;;;;;;;20.70;69.54;98114.56;8348008;28;20223;-76
2022/06/04 08:23:59;;;;;;;21.50;19.40;;;;;;;20.79;69.37;98112.94;8347761;28;20224;-76
2022/06/04 08:28:02;;;;;;;21.13;19.13;;;;;;;20.85;69.50;98107.19;8347664;28;20228;-76
2022/06/04 08:32:07;;;;;;;21.63;19.57;;;;;;;20.77;68.40;98123.63;8347679;28;20234;-77
2022/06/04 08:36:13;;;;;;;21.17;19.27;;;;;;;20.85;69.04;98128.25;8347532;28;20232;-76
2022/06/04 08:40:24;;;;;;;22.70;20.43;;;;;;;20.82;68.93;98131.13;8347292;28;20250;-76
2022/06/04 08:44:30;;;;;;;22.17;19.93;;;;;;;20.83;69.01;98127.53;8314329;28;20232;-77
2022/06/04 08:48:37;;;;;;;22.23;20.03;;;;;;;20.85;68.71;98134.34;8314680;28;20547;-76
2022/06/04 08:52:42;;;;;;;23.73;21.23;;;;;;;20.81;68.82;98142.59;8314664;28;20543;-77
2022/06/04 09:01:09;;;;;;;27.43;24.80;;;;;;;20.28;72.20;98161.84;8321070;28;20429;-77
2022/06/04 09:05:19;;;;;;;25.80;23.03;;;;;;;20.60;70.79;98159.22;8321154;28;20411;-77
2022/06/04 09:09:25;;;;;;;27.70;24.93;;;;;;;20.39;71.80;98159.16;8320878;28;20230;-77
2022/06/04 09:13:31;;;;;;;23.93;21.73;;;;;;;20.63;70.11;98155.50;8353286;28;20231;-77
2022/06/04 09:17:41;;;;;;;22.87;20.77;;;;;;;20.73;69.94;98150.31;8353584;28;20559;-76
2022/06/04 09:21:46;;;;;;;25.23;22.93;;;;;;;20.63;70.60;98134.44;8353430;28;20223;-77
2022/06/04 09:25:54;;;;;;;25.87;23.40;;;;;;;20.65;70.73;98119.38;8353214;28;20596;-76
2022/06/04 09:30:12;;;;;;;28.73;26.00;;;;;;;20.43;73.01;98097.44;8353008;28;20228;-77
2022/06/04 09:34:16;;;;;;;34.23;30.73;;;;;;;19.99;75.15;98078.28;8352970;28;20262;-77
2022/06/04 09:38:25;;;;;;;30.40;27.47;;;;;;;20.51;73.82;98065.25;8352863;28;20449;-77
2022/06/04 09:42:31;;;;;;;32.33;29.13;;;;;;;20.55;74.09;98074.56;8352108;28;20229;-77
2022/06/04 09:46:35;;;;;;;29.83;26.93;;;;;;;20.92;72.66;98071.47;8352659;28;20237;-77
2022/06/04 09:50:38;;;;;;;30.03;26.93;;;;;;;21.20;72.17;98084.91;8352402;28;20238;-77
2022/06/04 09:54:45;;;;;;;27.77;25.27;;;;;;;21.35;71.54;98077.50;8352318;28;20235;-77
2022/06/04 09:58:50;;;;;;;31.53;28.33;;;;;;;21.27;71.03;98084.25;8352252;28;20420;-76
2022/06/04 10:02:54;;;;;;;24.60;22.30;;;;;;;21.44;70.85;98095.16;8352129;28;20572;-76
2022/06/04 10:07:05;;;;;;;24.77;22.37;;;;;;;21.47;70.86;98092.25;8351998;28;20426;-76
2022/06/04 10:11:17;;;;;;;26.27;23.77;;;;;;;21.40;70.95;98091.06;8351153;28;20224;-77
2022/06/04 10:15:24;;;;;;;25.47;22.83;;;;;;;21.44;71.20;98090.72;8351712;28;20443;-77
2022/06/04 10:19:29;;;;;;;27.50;24.70;;;;;;;21.43;71.21;98094.28;8318609;28;20532;-77
2022/06/04 10:23:42;;;;;;;25.23;22.87;;;;;;;21.50;71.30;98096.44;8318781;28;20535;-77
2022/06/04 10:27:52;;;;;;;28.77;25.97;;;;;;;21.29;71.85;98100.75;8318461;28;20243;-76
2022/06/04 10:32:01;;;;;;;28.87;26.20;;;;;;;21.24;72.51;98104.75;8318557;28;20225;-77
2022/06/04 10:36:15;;;;;;;29.43;26.57;;;;;;;21.29;71.54;98110.47;8318376;28;20225;-76
2022/06/04 10:40:28;;;;;;;26.70;24.10;;;;;;;21.35;71.53;98115.19;8318055;28;20244;-77
2022/06/04 10:44:41;;;;;;;29.33;26.27;;;;;;;21.32;71.65;98125.16;8343556;28;20224;-77
2022/06/04 10:48:56;;;;;;;28.57;25.80;;;;;;;21.43;71.09;98120.63;8350784;28;20236;-76
2022/06/04 10:53:02;;;;;;;30.73;27.73;;;;;;;21.40;70.67;98133.22;8350663;28;20542;-76
2022/06/04 10:57:16;;;;;;;28.57;25.77;;;;;;;21.44;70.10;98130.22;8350487;28;20338;-76
2022/06/04 11:01:24;;;;;;;27.77;24.90;;;;;;;21.40;70.64;98131.44;8350256;28;20455;-77
2022/06/04 11:05:31;;;;;;;28.63;25.83;;;;;;;21.39;70.38;98132.41;8342473;28;20230;-76
2022/06/04 11:09:36;;;;;;;28.30;25.43;;;;;;;21.37;70.10;98136.97;8350093;28;20578;-77
2022/06/04 11:13:42;;;;;;;26.33;23.83;;;;;;;21.35;70.57;98144.16;8349822;28;20228;-76
2022/06/04 11:17:51;;;;;;;28.33;25.53;;;;;;;21.38;70.81;98149.19;8349829;28;20410;-76
2022/06/04 11:21:58;;;;;;;27.60;24.63;;;;;;;21.45;70.09;98142.41;8348607;28;20227;-76
2022/06/04 11:26:04;;;;;;;25.63;23.00;;;;;;;21.47;69.93;98147.56;8349534;28;20404;-76
2022/06/04 11:30:13;;;;;;;25.83;23.30;;;;;;;21.47;70.12;98152.84;8349364;28;20236;-76
2022/06/04 11:34:40;;;;;;;26.07;23.37;;;;;;;21.46;70.17;98151.19;8349270;28;20250;-76
2022/06/04 11:38:52;;;;;;;21.87;19.73;;;;;;;21.57;69.63;98161.63;8348942;28;20235;-76
2022/06/04 11:43:02;;;;;;;21.63;19.43;;;;;;;21.57;70.09;98159.00;8348853;28;20232;-76
2022/06/04 11:47:17;;;;;;;20.03;18.17;;;;;;;21.60;69.70;98166.63;8348886;28;20567;-76
2022/06/04 11:51:37;;;;;;;21.67;19.57;;;;;;;21.63;69.55;98166.38;8348589;28;20228;-77
2022/06/04 11:55:46;;;;;;;22.30;20.10;;;;;;;21.65;69.69;98164.44;8342718;28;20240;-77
2022/06/04 11:59:58;;;;;;;20.93;18.83;;;;;;;21.90;69.02;98158.81;8348453;28;20426;-77
2022/06/04 12:04:06;;;;;;;20.63;18.57;;;;;;;21.99;69.60;98160.63;8348407;28;20428;-77
2022/06/04 12:08:13;;;;;;;20.93;18.87;;;;;;;21.91;69.75;98158.66;8348291;28;20240;-77
2022/06/04 12:12:19;;;;;;;21.47;19.37;;;;;;;22.01;69.51;98161.34;8348285;28;20226;-77
2022/06/04 12:16:27;;;;;;;20.47;18.37;;;;;;;21.99;69.20;98169.38;8339577;28;20235;-76
2022/06/04 12:25:00;;;;;;;19.77;17.97;;;;;;;21.96;69.45;98167.00;8347850;28;20220;-77
2022/06/04 12:29:23;;;;;;;22.07;19.90;;;;;;;21.88;70.05;98164.22;8347659;28;20272;-77
2022/06/04 12:33:28;;;;;;;19.97;18.17;;;;;;;21.92;70.63;98165.63;8347050;28;20250;-76
2022/06/04 12:37:33;;;;;;;19.13;17.03;;;;;;;21.98;70.71;98165.06;8347685;28;20231;-78
2022/06/04 12:41:49;;;;;;;20.20;18.27;;;;;;;21.95;70.53;98164.50;8347306;28;20431;-77
2022/06/04 12:45:54;;;;;;;21.83;19.67;;;;;;;21.94;70.78;98173.41;8347404;28;20558;-77
2022/06/04 12:50:00;;;;;;;19.77;17.97;;;;;;;21.98;70.84;98156.34;8347155;28;20235;-77
2022/06/04 12:54:06;;;;;;;21.17;19.17;;;;;;;22.05;70.88;98160.09;8347438;28;20338;-77
2022/06/04 12:58:28;;;;;;;21.43;19.33;;;;;;;22.14;70.16;98151.38;8347305;28;20228;-77
2022/06/04 13:02:34;;;;;;;21.10;19.20;;;;;;;22.15;70.31;98157.47;8346880;28;20228;-77
2022/06/04 13:06:38;;;;;;;20.40;18.50;;;;;;;22.16;70.96;98174.97;8347178;28;20284;-77
2022/06/04 13:10:49;;;;;;;18.87;17.07;;;;;;;22.22;70.57;98166.53;8346883;28;20243;-77
2022/06/04 13:15:06;;;;;;;19.10;17.23;;;;;;;22.24;70.84;98160.13;8347070;28;20231;-77
2022/06/04 13:19:31;;;;;;;22.27;20.07;;;;;;;22.17;70.66;98166.91;8346905;28;20228;-77
2022/06/04 13:23:38;;;;;;;19.67;17.73;;;;;;;22.27;70.75;98159.03;8340227;28;20541;-77
2022/06/04 13:27:44;;;;;;;20.00;17.90;;;;;;;22.44;70.94;98152.25;8346876;28;20577;-77
2022/06/04 13:31:53;;;;;;;19.70;17.83;;;;;;;22.51;71.06;98157.81;8346641;28;20228;-77
2022/06/04 13:36:00;;;;;;;21.30;18.93;;;;;;;22.53;70.73;98161.97;8346609;28;20224;-77
2022/06/04 13:40:05;;;;;;;19.30;17.40;;;;;;;22.51;70.38;98155.19;8346485;28;20561;-77
2022/06/04 13:44:19;;;;;;;18.20;16.40;;;;;;;22.62;69.87;98163.78;8347887;28;20225;-77
2022/06/04 13:48:24;;;;;;;19.40;17.50;;;;;;;22.59;70.24;98161.41;8352520;28;20239;-77
2022/06/04 13:52:28;;;;;;;17.67;16.07;;;;;;;22.72;69.88;98147.94;8344859;28;20531;-76
2022/06/04 13:56:39;;;;;;;17.70;16.10;;;;;;;23.05;70.83;98145.84;8352418;28;20287;-77
2022/06/04 14:00:43;;;;;;;15.87;14.47;;;;;;;23.20;69.60;98141.75;8352448;28;20239;-77
2022/06/04 14:09:08;;;;;;;16.33;14.77;;;;;;;23.51;67.74;98148.59;8351940;28;20229;-77
2022/06/04 14:13:19;;;;;;;14.60;13.20;;;;;;;23.56;66.87;98159.59;8352010;28;20555;-77
2022/06/04 14:17:32;;;;;;;15.13;13.70;;;;;;;23.46;67.48;98169.38;8318487;28;20236;-76
2022/06/04 14:21:43;;;;;;;14.80;12.77;;;;;;;23.69;67.21;98161.91;8318922;28;20429;-77
2022/06/04 14:25:50;;;;;;;14.10;12.80;;;;;;;23.96;66.53;98177.78;8318799;28;20329;-77
2022/06/04 14:30:04;;;;;;;15.03;13.53;;;;;;;23.84;67.47;98170.19;8318437;28;20243;-77
2022/06/04 14:34:09;;;;;;;15.47;13.90;;;;;;;24.51;65.32;98174.25;8318451;28;20226;-77
2022/06/04 14:38:16;;;;;;;15.23;13.87;;;;;;;24.23;64.43;98181.38;8318350;28;20230;-78
2022/06/04 14:42:41;;;;;;;13.57;12.37;;;;;;;24.14;64.31;98175.19;8318022;28;20341;-77
2022/06/04 14:47:09;;;;;;;13.03;11.90;;;;;;;24.19;63.20;98183.47;8317781;28;20235;-74
2022/06/04 14:51:34;;;;;;;13.23;11.93;;;;;;;24.18;64.81;98181.00;8317913;28;20239;-78
2022/06/04 14:55:49;;;;;;;12.93;11.73;;;;;;;24.15;63.90;98181.31;8344050;28;20231;-78
2022/06/04 15:00:06;;;;;;;12.37;11.10;;;;;;;24.08;63.65;98169.63;8350507;28;20226;-78
2022/06/04 15:04:29;;;;;;;11.00;9.90;;;;;;;24.37;63.05;98177.41;8350317;28;20235;-78
2022/06/04 15:08:58;;;;;;;11.63;10.53;;;;;;;24.57;62.68;98173.63;8349869;28;20222;-75
2022/06/04 15:13:22;;;;;;;10.03;9.07;;;;;;;24.92;60.68;98169.31;8350043;28;20232;-75
2022/06/04 15:17:34;;;;;;;11.03;8.70;;;;;;;24.95;59.98;98170.81;8341814;28;20324;-75
2022/06/04 15:21:48;;;;;;;10.10;8.87;;;;;;;24.91;59.96;98166.81;8349727;28;20254;-76
2022/06/04 15:25:59;;;;;;;8.73;7.73;;;;;;;25.06;59.30;98159.13;8349564;28;20315;-76
2022/06/04 15:34:39;;;;;;;10.80;9.73;;;;;;;24.94;59.55;98167.34;8348832;28;20234;-76
2022/06/04 15:38:46;;;;;;;10.60;9.60;;;;;;;24.82;59.83;98171.19;8349156;28;20423;-76
2022/06/04 15:42:53;;;;;;;9.40;8.50;;;;;;;24.86;58.66;98166.44;8348893;28;20243;-76
2022/06/04 15:47:10;;;;;;;10.43;7.57;;;;;;;25.05;59.54;98149.50;8348880;28;20235;-76
2022/06/04 15:56:03;;;;;;;8.43;5.77;;;;;;;24.98;57.96;98136.06;8343541;28;20240;-76
2022/06/04 16:00:15;;;;;;;7.20;6.50;;;;;;;25.01;57.84;98134.91;8348453;28;20234;-76
2022/06/04 16:04:26;;;;;;;6.90;6.23;;;;;;;25.08;56.86;98144.72;8348413;28;20231;-76
2022/06/04 16:08:29;;;;;;;6.27;5.70;;;;;;;24.89;56.86;98137.81;8340271;28;20224;-76
2022/06/04 16:12:35;;;;;;;6.50;5.63;;;;;;;24.86;57.07;98129.34;8348108;28;20241;-76
2022/06/04 16:16:46;;;;;;;7.00;6.30;;;;;;;24.91;57.81;98133.19;8348139;28;20476;-75
2022/06/04 16:20:53;;;;;;;6.10;5.50;;;;;;;24.81;55.65;98143.06;8348096;28;20408;-76
2022/06/04 16:25:13;;;;;;;7.27;5.40;;;;;;;24.85;56.49;98133.81;8347878;28;20233;-76
2022/06/04 16:29:22;;;;;;;9.10;5.87;;;;;;;24.81;57.23;98142.22;8347633;28;20421;-76
2022/06/04 16:33:25;;;;;;;6.20;5.60;;;;;;;24.81;56.93;98142.22;8347331;28;20228;-75
2022/06/04 16:37:32;;;;;;;6.50;5.90;;;;;;;24.77;57.53;98144.38;8347684;28;20454;-76
2022/06/04 16:45:58;;;;;;;6.67;6.07;;;;;;;24.61;57.42;98146.88;8347423;28;20230;-76
2022/06/04 16:50:03;;;;;;;6.60;6.10;;;;;;;24.57;57.56;98147.16;8347283;28;20562;-77
2022/06/04 16:54:07;;;;;;;6.53;5.83;;;;;;;24.61;57.81;98152.16;8347306;28;20399;-77
2022/06/04 16:58:11;;;;;;;6.17;5.50;;;;;;;24.46;57.81;98157.94;8347309;28;20231;-77
2022/06/04 17:02:35;;;;;;;6.17;5.67;;;;;;;24.31;58.04;98151.53;8347175;28;20238;-76
2022/06/04 17:06:44;;;;;;;5.83;5.23;;;;;;;24.25;58.33;98152.13;8309828;28;20221;-76
2022/06/04 17:10:53;;;;;;;6.43;5.60;;;;;;;24.25;57.87;98146.84;8347074;28;20242;-76
2022/06/04 17:15:04;;;;;;;6.47;5.23;;;;;;;24.24;58.21;98145.16;8346997;28;20222;-76
2022/06/04 17:19:33;;;;;;;5.30;4.80;;;;;;;24.00;58.82;98157.16;8349819;28;20234;-76
2022/06/04 17:23:42;;;;;;;4.50;4.10;;;;;;;23.88;57.58;98166.28;8346928;28;20235;-76
2022/06/04 17:27:54;;;;;;;5.13;3.70;;;;;;;23.85;57.93;98166.56;8353406;28;20418;-76
2022/06/04 17:32:03;;;;;;;4.63;4.20;;;;;;;23.86;58.39;98163.78;8353037;28;20238;-76
2022/06/04 17:36:16;;;;;;;4.67;4.27;;;;;;;23.76;58.58;98161.16;8352948;28;20232;-76
2022/06/04 17:40:24;;;;;;;5.40;4.23;;;;;;;23.80;58.92;98165.22;8352821;28;20239;-76
2022/06/04 17:44:29;;;;;;;5.50;4.07;;;;;;;23.74;59.41;98173.69;8345071;28;20231;-76
2022/06/04 17:48:32;;;;;;;4.50;4.10;;;;;;;23.74;59.52;98172.84;8352663;28;20229;-77
2022/06/04 17:52:35;;;;;;;5.67;3.90;;;;;;;23.61;59.44;98178.50;8352505;28;20234;-76
2022/06/04 17:56:39;;;;;;;4.60;4.13;;;;;;;23.51;59.21;98175.84;8352498;28;20236;-77
2022/06/04 18:00:44;;;;;;;6.23;3.90;;;;;;;23.43;58.30;98178.41;8352417;28;20246;-76
2022/06/04 18:04:46;;;;;;;4.87;3.60;;;;;;;23.34;57.48;98182.75;8352240;28;20546;-76
2022/06/04 18:08:49;;;;;;;3.73;3.40;;;;;;;23.30;57.13;98185.81;8352084;28;20540;-76
2022/06/04 18:12:53;;;;;;;4.13;3.60;;;;;;;23.25;57.24;98178.31;8351939;28;20516;-77
2022/06/04 18:16:58;;;;;;;3.70;3.40;;;;;;;23.26;57.67;98179.97;8351729;28;20231;-76
2022/06/04 18:21:01;;;;;;;4.17;3.03;;;;;;;23.10;58.59;98182.41;8351587;28;20229;-76
2022/06/04 18:25:07;;;;;;;3.60;3.30;;;;;;;22.96;58.03;98189.75;8351527;28;20224;-76
2022/06/04 18:29:15;;;;;;;7.43;3.73;;;;;;;22.98;58.65;98184.31;8350870;28;20243;-76
2022/06/04 18:33:19;;;;;;;4.73;4.27;;;;;;;22.92;58.61;98187.53;8351200;28;20236;-76
2022/06/04 18:37:22;;;;;;;7.03;3.87;;;;;;;22.82;59.21;98190.16;8350813;28;20526;-75
2022/06/04 18:41:25;;;;;;;4.00;3.60;;;;;;;22.73;59.41;98186.59;8350971;28;20228;-75
2022/06/04 18:54:26;;;;;;;5.67;3.90;;;;;;;22.44;59.47;98205.03;8350568;28;20426;-76
2022/06/04 18:58:29;;;;;;;6.27;3.43;;;;;;;22.31;59.04;98196.53;8350192;28;20246;-76
2022/06/04 19:02:35;;;;;;;4.93;4.00;;;;;;;22.27;59.10;98195.97;8350447;28;20253;-76
2022/06/04 19:06:40;;;;;;;3.90;3.60;;;;;;;22.25;59.23;98205.81;8350289;28;20263;-77
2022/06/04 19:15:04;;;;;;;4.70;3.57;;;;;;;22.01;59.32;98225.47;8349985;28;20232;-76
2022/06/04 19:19:09;;;;;;;4.13;3.70;;;;;;;22.01;59.99;98216.72;8349803;28;20232;-76
2022/06/04 19:27:35;;;;;;;6.20;3.93;;;;;;;21.91;60.10;98226.38;8349341;28;20522;-76
2022/06/04 19:31:38;;;;;;;4.90;4.40;;;;;;;21.90;60.46;98233.47;8349414;28;20408;-76
2022/06/04 19:35:41;;;;;;;5.53;4.43;;;;;;;21.90;60.18;98232.66;8349517;28;20649;-76
2022/06/04 19:39:46;;;;;;;8.03;4.30;;;;;;;21.78;60.53;98242.41;8349031;28;20398;-75
2022/06/04 19:43:49;;;;;;;5.50;4.60;;;;;;;21.76;61.48;98253.13;8348084;28;20231;-76
2022/06/04 19:47:52;;;;;;;6.97;5.33;;;;;;;21.72;61.69;98246.41;8348965;28;20224;-76
2022/06/04 19:51:56;;;;;;;8.00;5.40;;;;;;;21.67;61.75;98238.09;8348753;28;20404;-76
2022/06/04 19:56:07;;;;;;;8.67;5.40;;;;;;;21.66;61.46;98254.84;8348563;28;20235;-76